Somerset, New Jersey
Current Conditions -  °F | °C
As of 2:53 PM on Saturday 25 Oct 2014 (Local Time) from KSMQ Reporting Station
Clear Clear  
Wind Chill: 68°   Ceiling: Unl
Heat Index: 68°   Visibility: 10mi
Dew Point: 42°   Wind: 6mph
Humidity: 39%   Direction: NA
Pressure: 29.7"   Gusts: 17mph
Location:  40.5°N, 74.52°W
Report Text: KSMQ 251853Z AUTO VRB05G15KT 10SM CLR 20/06 A2970 RMK AO2 SLP057 T02000056
Loading
Personal Weather Stations






























Interactive Weather Map
Tropical Storm Tracking
New forecast layout! Learn more

10-Day Weather Forecast

Advertisements
Track Severe Weather on mobile